»·PEaware :: AAL822 KPHX-KSNA

AAL822 :: KPHX-KSNA

FLIGHT INFORMATION

Flight Status: Arrived
Operator:
American Airlines
More flights by this operator :: More flights under this callsign
Pilot: Max W. (2591)
Aircraft: BOEING 727-200
(B722)
More flights by this aircraft type
Origin: KPHX Phoenix Sky Harbor Intl
United States
Destination: KSNA John Wayne-Orange Co
United States
More flights between these airports :: More routes between these airports
Route: +BXK4 PSP KAYOH7
File this flight plan on PilotEdge
Remarks:
Altitude:
(Current/Filed)
26,000ft
Speed:
(Current/Filed)
450kts
Departed: 11-Aug-18 03:26 PM
Arrived: 11-Aug-18 04:16 PM
Distance/Time
Traveled:
293nm/0:50
Distance/Time
To Go:
Arrived

Flight Plot

Page will automatically refresh every two minutes.

Flight plan parsing failed; only flown route is shown


Map Options




Map Legend


Flown Route
Filed Route
Departure Airport
Arrival Airport
Navaid (VOR, NDB)
Fix

Horizontal Profiles

Position Reports

Time Latitude Longitude Heading Altitude Ground
Speed
11-Aug-18 14:50 33.433367 -111.998972 4 1121ft 0kts
11-Aug-18 14:51 33.433367 -111.998972 4 1121ft 0kts
11-Aug-18 14:52 33.433367 -111.998972 4 1121ft 0kts
11-Aug-18 14:53 33.433367 -111.998972 4 1121ft 0kts
11-Aug-18 14:54 33.433367 -111.998972 4 1121ft 0kts
11-Aug-18 14:55 33.433367 -111.998972 4 1121ft 0kts
11-Aug-18 14:56 33.433367 -111.998972 4 1121ft 0kts
11-Aug-18 14:57 33.433367 -111.998972 4 1121ft 0kts
11-Aug-18 14:58 33.433367 -111.998972 4 1121ft 0kts
11-Aug-18 14:59 33.433367 -111.998972 4 1121ft 0kts
11-Aug-18 15:00 33.433367 -111.998972 4 1120ft 0kts
11-Aug-18 15:01 33.433367 -111.998972 4 1120ft 0kts
11-Aug-18 15:02 33.433367 -111.998972 4 1120ft 0kts
11-Aug-18 15:03 33.433367 -111.998972 4 1120ft 0kts
11-Aug-18 15:04 33.433367 -111.998972 4 1120ft 0kts
11-Aug-18 15:05 33.433367 -111.998972 4 1120ft 0kts
11-Aug-18 15:06 33.433367 -111.998972 4 1120ft 0kts
11-Aug-18 15:07 33.433367 -111.998972 4 1120ft 0kts
11-Aug-18 15:08 33.433367 -111.998972 4 1120ft 0kts
11-Aug-18 15:09 33.433367 -111.998972 4 1120ft 0kts
11-Aug-18 15:10 33.433367 -111.998972 4 1120ft 0kts
11-Aug-18 15:11 33.433367 -111.998972 4 1120ft 0kts
11-Aug-18 15:12 33.433367 -111.998972 4 1120ft 0kts
11-Aug-18 15:13 33.433367 -111.998972 4 1120ft 0kts
11-Aug-18 15:14 33.433367 -111.998972 4 1120ft 0kts
11-Aug-18 15:15 33.433367 -111.998972 4 1120ft 0kts
11-Aug-18 15:16 33.433367 -111.998972 4 1120ft 0kts
11-Aug-18 15:17 33.433367 -111.998972 4 1120ft 0kts
11-Aug-18 15:18 33.433068 -111.999032 30 1121ft 2kts
11-Aug-18 15:19 33.432834 -111.999530 89 1121ft 1kts
11-Aug-18 15:20 33.432834 -111.999537 89 1121ft 0kts
11-Aug-18 15:21 33.432834 -111.999536 89 1120ft 0kts
11-Aug-18 15:22 33.432834 -111.999536 89 1120ft 0kts
11-Aug-18 15:23 33.432834 -111.999536 89 1120ft 0kts
11-Aug-18 15:24 33.432818 -111.998271 91 1120ft 10kts
11-Aug-18 15:25 33.432800 -111.993899 89 1120ft 12kts
11-Aug-18 15:26 33.431153 -111.993672 231 1120ft 9kts
11-Aug-18 15:27 33.431068 -112.016999 270 1176ft 180kts
11-Aug-18 15:28 33.422124 -112.080349 253 3418ft 228kts
11-Aug-18 15:29 33.398636 -112.151693 249 6359ft 249kts
11-Aug-18 15:30 33.375961 -112.236713 280 8374ft 302kts
11-Aug-18 15:31 33.398746 -112.334614 288 11348ft 315kts
11-Aug-18 15:32 33.426007 -112.436183 289 14034ft 328kts
11-Aug-18 15:33 33.449229 -112.542772 271 16422ft 341kts
11-Aug-18 15:34 33.451037 -112.656656 273 18600ft 351kts
11-Aug-18 15:35 33.451351 -112.772307 276 20360ft 359kts
11-Aug-18 15:36 33.455400 -112.891674 282 21897ft 360kts
11-Aug-18 15:37 33.441312 -113.011422 269 23302ft 368kts
11-Aug-18 15:38 33.444905 -113.134141 276 24694ft 371kts
11-Aug-18 15:39 33.455547 -113.257753 278 25934ft 377kts
11-Aug-18 15:40 33.468157 -113.387725 277 26045ft 410kts
11-Aug-18 15:41 33.481919 -113.527716 278 26033ft 427kts
11-Aug-18 15:42 33.495044 -113.661505 277 26031ft 416kts
11-Aug-18 15:43 33.508225 -113.802959 277 26024ft 450kts
11-Aug-18 15:44 33.522801 -113.956847 277 26023ft 478kts
11-Aug-18 15:45 33.538120 -114.119056 277 26027ft 502kts
11-Aug-18 15:46 33.553782 -114.288084 277 26030ft 521kts
11-Aug-18 15:47 33.569321 -114.461871 278 26026ft 527kts
11-Aug-18 15:48 33.585265 -114.636659 277 26027ft 532kts
11-Aug-18 15:49 33.600772 -114.805121 283 26015ft 533kts
11-Aug-18 15:50 33.636156 -114.975486 283 26025ft 532kts
11-Aug-18 15:51 33.649177 -115.151640 273 26019ft 533kts
11-Aug-18 15:52 33.684279 -115.322163 284 25999ft 530kts
11-Aug-18 15:53 33.713083 -115.491845 284 25965ft 520kts
11-Aug-18 15:54 33.743160 -115.659831 282 25963ft 526kts
11-Aug-18 15:55 33.766153 -115.799860 282 25963ft 530kts
11-Aug-18 15:56 33.799563 -116.000909 282 25962ft 533kts
11-Aug-18 15:57 33.827391 -116.169852 282 25198ft 499kts
11-Aug-18 15:58 33.849434 -116.303992 282 24000ft 481kts
11-Aug-18 15:59 33.879193 -116.486871 282 24039ft 457kts
11-Aug-18 16:00 33.898303 -116.607652 283 22811ft 432kts
11-Aug-18 16:01 33.904048 -116.747922 268 17906ft 419kts
11-Aug-18 16:02 33.896460 -116.887775 258 14034ft 452kts
11-Aug-18 16:03 33.841618 -117.023946 242 14030ft 457kts
11-Aug-18 16:04 33.777882 -117.171354 242 14006ft 397kts
11-Aug-18 16:05 33.738865 -117.262276 242 13579ft 319kts
11-Aug-18 16:06 33.726251 -117.359199 269 10985ft 263kts
11-Aug-18 16:07 33.725494 -117.438586 281 9092ft 240kts
11-Aug-18 16:08 33.744889 -117.510172 301 7849ft 235kts
11-Aug-18 16:09 33.775466 -117.576439 302 7983ft 210kts
11-Aug-18 16:10 33.804164 -117.638881 302 7071ft 214kts
11-Aug-18 16:11 33.833846 -117.698982 290 5660ft 236kts
11-Aug-18 16:12 33.828264 -117.769985 230 4432ft 213kts
11-Aug-18 16:13 33.781291 -117.801244 201 3378ft 170kts
11-Aug-18 16:14 33.744669 -117.825250 209 1945ft 148kts
11-Aug-18 16:15 33.709037 -117.847738 208 890ft 140kts
11-Aug-18 16:16 33.676486 -117.868320 208 68ft 83kts
11-Aug-18 16:17 33.669148 -117.871646 121 68ft 0kts
11-Aug-18 16:18 33.670812 -117.869135 39 68ft 24kts
11-Aug-18 16:19 33.674568 -117.865955 31 68ft 15kts
11-Aug-18 16:20 33.675587 -117.864732 118 68ft 0kts

Navigation Log

Ident Type
Flight plan parsing failed, navigation log unavailable